»·PEaware :: SWA1197 KPDX-KSFO

SWA1197 :: KPDX-KSFO

FLIGHT INFORMATION

Flight Status: Arrived
Operator:
Southwest Airlines
More flights by this operator :: More flights under this callsign
Pilot: Adam A. (5112)
Aircraft: BOEING 737-300
(B733)
More flights by this aircraft type
Origin: KPDX Portland Intl
United States
Destination: KSFO San Francisco Intl
United States
More flights between these airports :: More routes between these airports
Route: +MINNE5 FAMUK Q3 FOWND MLBEC BDEGA2
File this flight plan on PilotEdge
Remarks:
Altitude:
(Current/Filed)
39,000ft
Speed:
(Current/Filed)
455kts
Departed: 05-Nov-17 12:34 PM
Arrived: 05-Nov-17 02:05 PM
Distance/Time
Traveled:
479nm/1:31
Distance/Time
To Go:
Arrived

Flight Plot

Page will automatically refresh every two minutes.


Map Options




Map Legend


Flown Route
Filed Route
Departure Airport
Arrival Airport
Navaid (VOR, NDB)
Fix

Horizontal Profiles

Position Reports

Time Latitude Longitude Heading Altitude Ground
Speed
05-Nov-17 11:49 45.589837 -122.597346 209 36ft 0kts
05-Nov-17 11:50 45.589837 -122.597346 209 36ft 0kts
05-Nov-17 11:51 45.589837 -122.597346 209 36ft 0kts
05-Nov-17 11:52 45.589837 -122.597346 209 36ft 0kts
05-Nov-17 11:53 45.589837 -122.597346 209 36ft 0kts
05-Nov-17 11:54 45.589837 -122.597346 209 36ft 0kts
05-Nov-17 11:55 45.589837 -122.597346 209 36ft 0kts
05-Nov-17 11:56 45.589837 -122.597346 209 36ft 0kts
05-Nov-17 11:57 45.589837 -122.597346 209 36ft 0kts
05-Nov-17 11:58 45.589837 -122.597346 209 36ft 0kts
05-Nov-17 11:59 45.589837 -122.597346 209 36ft 0kts
05-Nov-17 12:00 45.589837 -122.597346 209 36ft 0kts
05-Nov-17 12:01 45.589837 -122.597346 209 36ft 0kts
05-Nov-17 12:02 45.589837 -122.597346 209 36ft 0kts
05-Nov-17 12:03 45.589837 -122.597346 209 36ft 0kts
05-Nov-17 12:04 45.589837 -122.597346 209 36ft 0kts
05-Nov-17 12:05 45.589837 -122.597346 209 36ft 0kts
05-Nov-17 12:06 45.589837 -122.597346 209 36ft 0kts
05-Nov-17 12:07 45.589837 -122.597346 209 36ft 0kts
05-Nov-17 12:08 45.589837 -122.597346 209 36ft 0kts
05-Nov-17 12:09 45.589837 -122.597346 209 36ft 0kts
05-Nov-17 12:10 45.589837 -122.597346 209 36ft 0kts
05-Nov-17 12:11 45.589837 -122.597346 209 36ft 0kts
05-Nov-17 12:12 45.589837 -122.597346 209 36ft 0kts
05-Nov-17 12:13 45.589837 -122.597346 209 36ft 0kts
05-Nov-17 12:14 45.589837 -122.597346 209 36ft 0kts
05-Nov-17 12:15 45.589837 -122.597346 209 36ft 0kts
05-Nov-17 12:16 45.589837 -122.597346 209 36ft 0kts
05-Nov-17 12:17 45.589837 -122.597346 209 36ft 0kts
05-Nov-17 12:18 45.589837 -122.597346 209 36ft 0kts
05-Nov-17 12:19 45.589837 -122.597346 209 36ft 0kts
05-Nov-17 12:20 45.589837 -122.597346 209 36ft 0kts
05-Nov-17 12:21 45.589837 -122.597346 209 36ft 0kts
05-Nov-17 12:22 45.589837 -122.597346 209 36ft 0kts
05-Nov-17 12:23 45.589837 -122.597346 209 36ft 0kts
05-Nov-17 12:24 45.589837 -122.597346 209 36ft 0kts
05-Nov-17 12:25 45.589837 -122.597346 209 36ft 0kts
05-Nov-17 12:26 45.590241 -122.597037 207 36ft 2kts
05-Nov-17 12:27 45.590336 -122.596621 308 36ft 1kts
05-Nov-17 12:28 45.590738 -122.597675 298 36ft 0kts
05-Nov-17 12:29 45.590739 -122.597676 298 36ft 0kts
05-Nov-17 12:30 45.590739 -122.597676 298 36ft 0kts
05-Nov-17 12:31 45.590970 -122.598287 299 36ft 0kts
05-Nov-17 12:32 45.590207 -122.601539 209 36ft 12kts
05-Nov-17 12:33 45.587684 -122.599011 115 36ft 19kts
05-Nov-17 12:34 45.585043 -122.592291 120 36ft 18kts
05-Nov-17 12:35 45.582073 -122.584690 117 36ft 16kts
05-Nov-17 12:36 45.581914 -122.584269 118 36ft 0kts
05-Nov-17 12:37 45.581914 -122.584269 118 36ft 0kts
05-Nov-17 12:38 45.581019 -122.585260 299 36ft 15kts
05-Nov-17 12:39 45.597125 -122.624220 295 1274ft 154kts
05-Nov-17 12:40 45.625636 -122.691703 297 2911ft 229kts
05-Nov-17 12:41 45.659979 -122.777070 298 5622ft 262kts
05-Nov-17 12:42 45.659823 -122.876307 244 8742ft 268kts
05-Nov-17 12:43 45.601379 -122.925052 188 11040ft 310kts
05-Nov-17 12:44 45.512667 -122.935009 189 13602ft 332kts
05-Nov-17 12:45 45.419088 -122.945872 189 16195ft 348kts
05-Nov-17 12:46 45.321346 -122.957227 193 18519ft 364kts
05-Nov-17 12:47 45.219452 -122.969364 196 20739ft 373kts
05-Nov-17 12:48 45.117193 -122.993278 198 22797ft 382kts
05-Nov-17 12:49 45.011909 -123.017856 198 24698ft 392kts
05-Nov-17 12:50 44.903965 -123.042918 198 26457ft 402kts
05-Nov-17 12:51 44.808351 -123.064929 198 28183ft 412kts
05-Nov-17 12:52 44.696848 -123.090567 198 30525ft 408kts
05-Nov-17 12:53 44.586337 -123.115969 198 32559ft 406kts
05-Nov-17 12:54 44.479967 -123.136143 187 34344ft 412kts
05-Nov-17 12:55 44.366111 -123.130923 187 35904ft 410kts
05-Nov-17 12:56 44.252851 -123.126830 187 37002ft 414kts
05-Nov-17 12:57 44.139888 -123.122776 187 37019ft 416kts
05-Nov-17 12:58 44.025608 -123.118718 187 37018ft 416kts
05-Nov-17 12:59 43.910739 -123.114637 187 37020ft 416kts
05-Nov-17 13:00 43.799426 -123.110653 187 37022ft 417kts
05-Nov-17 13:01 43.684622 -123.106618 187 37018ft 417kts
05-Nov-17 13:02 43.569361 -123.102575 187 37020ft 417kts
05-Nov-17 13:03 43.454030 -123.098548 187 37020ft 418kts
05-Nov-17 13:04 43.338257 -123.094517 187 37021ft 418kts
05-Nov-17 13:05 43.222847 -123.090512 187 37018ft 418kts
05-Nov-17 13:06 43.104512 -123.086517 187 36986ft 441kts
05-Nov-17 13:07 42.981082 -123.082386 186 37025ft 445kts
05-Nov-17 13:08 42.859571 -123.078239 186 36995ft 445kts
05-Nov-17 13:09 42.736972 -123.074121 186 36984ft 445kts
05-Nov-17 13:10 42.615052 -123.070016 186 36936ft 443kts
05-Nov-17 13:11 42.492758 -123.065932 186 37022ft 443kts
05-Nov-17 13:12 42.370532 -123.062114 186 37047ft 443kts
05-Nov-17 13:13 42.248187 -123.058135 186 37046ft 442kts
05-Nov-17 13:14 42.126332 -123.054184 186 37046ft 441kts
05-Nov-17 13:15 42.004434 -123.050248 186 37046ft 441kts
05-Nov-17 13:16 41.885147 -123.046405 186 37010ft 441kts
05-Nov-17 13:17 41.766061 -123.042552 186 37041ft 441kts
05-Nov-17 13:18 41.645548 -123.038698 186 37017ft 439kts
05-Nov-17 13:19 41.524284 -123.034846 186 37020ft 439kts
05-Nov-17 13:20 41.406804 -123.031118 186 37018ft 438kts
05-Nov-17 13:21 41.286069 -123.027572 186 37100ft 438kts
05-Nov-17 13:22 41.165345 -123.023978 186 37100ft 437kts
05-Nov-17 13:23 41.045565 -123.020339 186 37100ft 437kts
05-Nov-17 13:24 40.924532 -123.016672 186 37100ft 436kts
05-Nov-17 13:25 40.808066 -123.013122 186 37103ft 436kts
05-Nov-17 13:26 40.688166 -123.009512 186 37101ft 435kts
05-Nov-17 13:27 40.568633 -123.005936 186 37100ft 435kts
05-Nov-17 13:28 40.447925 -123.002330 186 37099ft 434kts
05-Nov-17 13:29 40.328260 -122.998775 186 37125ft 434kts
05-Nov-17 13:30 40.208225 -122.995213 186 37127ft 433kts
05-Nov-17 13:31 40.087741 -122.991657 185 37157ft 434kts
05-Nov-17 13:32 39.967460 -122.988067 185 37155ft 432kts
05-Nov-17 13:33 39.865944 -122.985082 184 37129ft 432kts
05-Nov-17 13:34 39.746010 -122.981555 184 37157ft 433kts
05-Nov-17 13:35 39.626719 -122.978076 184 37155ft 433kts
05-Nov-17 13:36 39.507573 -122.974618 184 37155ft 432kts
05-Nov-17 13:37 39.389587 -122.971187 184 37126ft 429kts
05-Nov-17 13:38 39.270451 -122.967762 184 37159ft 432kts
05-Nov-17 13:39 39.151115 -122.964339 184 37155ft 431kts
05-Nov-17 13:40 39.032342 -122.961932 185 37155ft 430kts
05-Nov-17 13:41 38.914056 -122.959724 184 36436ft 427kts
05-Nov-17 13:42 38.809359 -122.940212 171 33067ft 435kts
05-Nov-17 13:43 38.695384 -122.905778 172 29692ft 421kts
05-Nov-17 13:44 38.589177 -122.874303 172 29171ft 362kts
05-Nov-17 13:45 38.500248 -122.848261 173 28895ft 325kts
05-Nov-17 13:46 38.406142 -122.820848 171 25640ft 402kts
05-Nov-17 13:47 38.296335 -122.788403 171 21452ft 403kts
05-Nov-17 13:48 38.193654 -122.758459 171 19834ft 379kts
05-Nov-17 13:49 38.093568 -122.729402 171 18106ft 364kts
05-Nov-17 13:50 37.996020 -122.701103 170 16450ft 360kts
05-Nov-17 13:51 37.901084 -122.671789 157 14872ft 353kts
05-Nov-17 13:52 37.825866 -122.595425 142 12835ft 349kts
05-Nov-17 13:53 37.759231 -122.524744 141 11128ft 332kts
05-Nov-17 13:54 37.695622 -122.457229 141 11000ft 272kts
05-Nov-17 13:55 37.640836 -122.399045 142 10984ft 257kts
05-Nov-17 13:56 37.581539 -122.352746 157 10578ft 256kts
05-Nov-17 13:57 37.513652 -122.311736 156 8399ft 276kts
05-Nov-17 13:58 37.447139 -122.271816 155 8269ft 275kts
05-Nov-17 13:59 37.380511 -122.232011 156 7070ft 265kts
05-Nov-17 14:00 37.346453 -122.165563 62 5859ft 245kts
05-Nov-17 14:01 37.398516 -122.124870 23 4691ft 214kts
05-Nov-17 14:02 37.449808 -122.096105 23 3994ft 196kts
05-Nov-17 14:03 37.499086 -122.088763 323 4007ft 194kts
05-Nov-17 14:04 37.525819 -122.145923 289 3914ft 197kts
05-Nov-17 14:05 37.546114 -122.203867 300 3030ft 155kts
05-Nov-17 14:06 37.565405 -122.248212 297 2592ft 147kts
05-Nov-17 14:07 37.583606 -122.291642 300 1515ft 134kts
05-Nov-17 14:08 37.600736 -122.332321 299 720ft 130kts
05-Nov-17 14:09 37.615382 -122.367062 299 20ft 72kts
05-Nov-17 14:10 37.618961 -122.377792 268 20ft 14kts
05-Nov-17 14:11 37.618951 -122.378127 264 20ft 0kts
05-Nov-17 14:12 37.618503 -122.379818 191 20ft 17kts
05-Nov-17 14:13 37.615175 -122.380589 208 20ft 20kts
05-Nov-17 14:14 37.611511 -122.384662 316 20ft 12kts
05-Nov-17 14:15 37.612675 -122.384661 4 20ft 0kts
05-Nov-17 14:16 37.612675 -122.384661 4 20ft 0kts
05-Nov-17 14:17 37.612675 -122.384661 4 20ft 0kts

Navigation Log

Ident Type
Flight plan parsing failed, navigation log unavailable